Shell Lake, Wisconsin
Current Conditions -  °F | °C
As of 8:35 PM on Thursday 20 Nov 2014 (Local Time) from KUBE Reporting Station
Clear Clear  
Wind Chill: -12°   Ceiling: Unl
Heat Index:   Visibility: 10mi
Dew Point: -4°   Wind: 6mph
Humidity: 85%   Direction: 270°W
Pressure: 30.16"   Gusts: NA
Location:  45.74°N, 91.93°W
Report Text: KUBE 210235Z AUTO 27005KT 10SM CLR M18/M20 A3016 RMK AO2
Loading
Personal Weather Stations






























Interactive Weather Map New forecast layout! Learn more

10-Day Weather Forecast

Advertisements
Track Severe Weather on mobile